sensor_id;sensor_type;location;lat;lon;timestamp;P1;durP1;ratioP1;P2;durP2;ratioP2
50739;SDS011;36704;52.524;17.580;2023-08-31T00:00:26;16.92;;;12.60;;
50739;SDS011;36704;52.524;17.580;2023-08-31T00:03:28;17.73;;;10.15;;
50739;SDS011;36704;52.524;17.580;2023-08-31T00:06:17;23.25;;;10.95;;
50739;SDS011;36704;52.524;17.580;2023-08-31T00:09:03;12.70;;;7.38;;
50739;SDS011;36704;52.524;17.580;2023-08-31T00:11:51;9.93;;;5.57;;
50739;SDS011;36704;52.524;17.580;2023-08-31T00:14:37;6.00;;;4.32;;
50739;SDS011;36704;52.524;17.580;2023-08-31T00:17:23;6.43;;;3.80;;
50739;SDS011;36704;52.524;17.580;2023-08-31T00:20:09;9.15;;;4.72;;
50739;SDS011;36704;52.524;17.580;2023-08-31T00:22:57;8.20;;;5.03;;
50739;SDS011;36704;52.524;17.580;2023-08-31T00:25:43;10.40;;;4.93;;
50739;SDS011;36704;52.524;17.580;2023-08-31T00:28:30;7.03;;;3.90;;
50739;SDS011;36704;52.524;17.580;2023-08-31T00:31:18;6.50;;;3.50;;
50739;SDS011;36704;52.524;17.580;2023-08-31T00:34:05;4.32;;;3.05;;
50739;SDS011;36704;52.524;17.580;2023-08-31T00:36:52;6.70;;;3.38;;
50739;SDS011;36704;52.524;17.580;2023-08-31T00:39:38;4.30;;;3.28;;
50739;SDS011;36704;52.524;17.580;2023-08-31T00:42:25;4.07;;;3.40;;
50739;SDS011;36704;52.524;17.580;2023-08-31T00:45:11;3.80;;;3.30;;
50739;SDS011;36704;52.524;17.580;2023-08-31T00:47:57;4.65;;;3.58;;
50739;SDS011;36704;52.524;17.580;2023-08-31T00:50:45;4.75;;;3.20;;
50739;SDS011;36704;52.524;17.580;2023-08-31T00:53:31;5.55;;;2.60;;
50739;SDS011;36704;52.524;17.580;2023-08-31T00:56:18;5.32;;;3.13;;
50739;SDS011;36704;52.524;17.580;2023-08-31T00:59:15;6.10;;;3.00;;
50739;SDS011;36704;52.524;17.580;2023-08-31T01:05:27;6.38;;;3.03;;
50739;SDS011;36704;52.524;17.580;2023-08-31T01:08:31;4.75;;;3.28;;
50739;SDS011;36704;52.524;17.580;2023-08-31T01:11:27;4.47;;;3.03;;
50739;SDS011;36704;52.524;17.580;2023-08-31T01:14:19;5.05;;;3.35;;
50739;SDS011;36704;52.524;17.580;2023-08-31T01:17:12;5.68;;;3.35;;
50739;SDS011;36704;52.524;17.580;2023-08-31T01:19:59;5.93;;;4.07;;
50739;SDS011;36704;52.524;17.580;2023-08-31T01:22:55;5.43;;;3.55;;
50739;SDS011;36704;52.524;17.580;2023-08-31T01:25:46;5.97;;;3.60;;
50739;SDS011;36704;52.524;17.580;2023-08-31T01:28:33;5.88;;;3.80;;
50739;SDS011;36704;52.524;17.580;2023-08-31T01:31:19;6.65;;;3.90;;
50739;SDS011;36704;52.524;17.580;2023-08-31T01:34:05;5.32;;;4.15;;
50739;SDS011;36704;52.524;17.580;2023-08-31T01:36:53;6.32;;;3.88;;
50739;SDS011;36704;52.524;17.580;2023-08-31T01:40:17;5.15;;;3.83;;
50739;SDS011;36704;52.524;17.580;2023-08-31T01:42:57;6.28;;;3.63;;
50739;SDS011;36704;52.524;17.580;2023-08-31T01:45:46;7.97;;;4.20;;
50739;SDS011;36704;52.524;17.580;2023-08-31T01:48:39;5.22;;;4.13;;
50739;SDS011;36704;52.524;17.580;2023-08-31T01:51:26;5.55;;;3.53;;
50739;SDS011;36704;52.524;17.580;2023-08-31T01:54:12;6.95;;;4.00;;
50739;SDS011;36704;52.524;17.580;2023-08-31T01:57:02;5.10;;;3.70;;
50739;SDS011;36704;52.524;17.580;2023-08-31T02:02:35;6.90;;;4.53;;
50739;SDS011;36704;52.524;17.580;2023-08-31T02:05:22;6.00;;;4.07;;
50739;SDS011;36704;52.524;17.580;2023-08-31T02:08:07;4.82;;;4.00;;
50739;SDS011;36704;52.524;17.580;2023-08-31T02:10:53;6.45;;;4.05;;
50739;SDS011;36704;52.524;17.580;2023-08-31T02:13:42;6.05;;;4.50;;
50739;SDS011;36704;52.524;17.580;2023-08-31T02:16:28;4.93;;;4.20;;
50739;SDS011;36704;52.524;17.580;2023-08-31T02:19:14;6.90;;;4.35;;
50739;SDS011;36704;52.524;17.580;2023-08-31T02:22:01;6.75;;;4.50;;
50739;SDS011;36704;52.524;17.580;2023-08-31T02:24:47;5.82;;;4.30;;
50739;SDS011;36704;52.524;17.580;2023-08-31T02:27:33;6.68;;;4.53;;
50739;SDS011;36704;52.524;17.580;2023-08-31T02:30:19;6.70;;;4.28;;
50739;SDS011;36704;52.524;17.580;2023-08-31T02:33:05;6.50;;;4.07;;
50739;SDS011;36704;52.524;17.580;2023-08-31T02:35:52;7.40;;;4.78;;
50739;SDS011;36704;52.524;17.580;2023-08-31T02:38:41;5.28;;;3.90;;
50739;SDS011;36704;52.524;17.580;2023-08-31T02:41:27;6.68;;;4.53;;
50739;SDS011;36704;52.524;17.580;2023-08-31T02:44:14;6.22;;;4.97;;
50739;SDS011;36704;52.524;17.580;2023-08-31T02:46:59;6.35;;;4.97;;
50739;SDS011;36704;52.524;17.580;2023-08-31T02:49:46;6.93;;;4.88;;
50739;SDS011;36704;52.524;17.580;2023-08-31T02:52:33;7.60;;;5.43;;
50739;SDS011;36704;52.524;17.580;2023-08-31T02:55:19;6.78;;;4.95;;
50739;SDS011;36704;52.524;17.580;2023-08-31T02:58:08;7.15;;;5.10;;
50739;SDS011;36704;52.524;17.580;2023-08-31T03:00:54;9.20;;;4.97;;
50739;SDS011;36704;52.524;17.580;2023-08-31T03:03:41;7.00;;;5.47;;
50739;SDS011;36704;52.524;17.580;2023-08-31T03:06:28;7.22;;;5.35;;
50739;SDS011;36704;52.524;17.580;2023-08-31T03:09:18;8.50;;;5.50;;
50739;SDS011;36704;52.524;17.580;2023-08-31T03:12:05;6.88;;;5.65;;
50739;SDS011;36704;52.524;17.580;2023-08-31T03:14:51;12.25;;;6.25;;
50739;SDS011;36704;52.524;17.580;2023-08-31T03:17:37;8.45;;;5.93;;
50739;SDS011;36704;52.524;17.580;2023-08-31T03:20:23;8.65;;;5.90;;
50739;SDS011;36704;52.524;17.580;2023-08-31T03:23:10;9.88;;;5.45;;
50739;SDS011;36704;52.524;17.580;2023-08-31T03:25:57;10.27;;;6.55;;
50739;SDS011;36704;52.524;17.580;2023-08-31T03:28:44;9.00;;;6.60;;
50739;SDS011;36704;52.524;17.580;2023-08-31T03:31:30;12.63;;;7.18;;
50739;SDS011;36704;52.524;17.580;2023-08-31T03:34:17;8.20;;;6.93;;
50739;SDS011;36704;52.524;17.580;2023-08-31T03:37:03;7.68;;;6.75;;
50739;SDS011;36704;52.524;17.580;2023-08-31T03:39:50;7.95;;;6.57;;
50739;SDS011;36704;52.524;17.580;2023-08-31T03:42:37;12.63;;;7.03;;
50739;SDS011;36704;52.524;17.580;2023-08-31T03:45:24;8.48;;;6.93;;
50739;SDS011;36704;52.524;17.580;2023-08-31T03:48:10;7.88;;;6.30;;
50739;SDS011;36704;52.524;17.580;2023-08-31T03:50:56;10.40;;;7.40;;
50739;SDS011;36704;52.524;17.580;2023-08-31T03:53:42;9.88;;;7.35;;
50739;SDS011;36704;52.524;17.580;2023-08-31T03:56:30;8.30;;;7.28;;
50739;SDS011;36704;52.524;17.580;2023-08-31T03:59:19;10.02;;;7.70;;
50739;SDS011;36704;52.524;17.580;2023-08-31T04:02:05;8.20;;;6.97;;
50739;SDS011;36704;52.524;17.580;2023-08-31T04:04:51;9.82;;;7.65;;
50739;SDS011;36704;52.524;17.580;2023-08-31T04:07:37;11.32;;;8.13;;
50739;SDS011;36704;52.524;17.580;2023-08-31T04:10:23;10.65;;;8.10;;
50739;SDS011;36704;52.524;17.580;2023-08-31T04:13:11;10.50;;;9.05;;
50739;SDS011;36704;52.524;17.580;2023-08-31T04:15:57;11.25;;;9.85;;
50739;SDS011;36704;52.524;17.580;2023-08-31T04:18:43;14.55;;;9.50;;
50739;SDS011;36704;52.524;17.580;2023-08-31T04:21:33;13.77;;;9.68;;
50739;SDS011;36704;52.524;17.580;2023-08-31T04:24:18;14.27;;;11.25;;
50739;SDS011;36704;52.524;17.580;2023-08-31T04:27:04;14.00;;;12.00;;
50739;SDS011;36704;52.524;17.580;2023-08-31T04:29:50;14.00;;;11.15;;
50739;SDS011;36704;52.524;17.580;2023-08-31T04:32:36;17.33;;;11.98;;
50739;SDS011;36704;52.524;17.580;2023-08-31T04:35:22;13.00;;;10.73;;
50739;SDS011;36704;52.524;17.580;2023-08-31T04:38:07;14.23;;;11.00;;
50739;SDS011;36704;52.524;17.580;2023-08-31T04:40:53;13.93;;;11.20;;
50739;SDS011;36704;52.524;17.580;2023-08-31T04:43:39;16.17;;;11.27;;
50739;SDS011;36704;52.524;17.580;2023-08-31T04:46:26;14.10;;;11.60;;
50739;SDS011;36704;52.524;17.580;2023-08-31T04:49:11;14.73;;;12.20;;
50739;SDS011;36704;52.524;17.580;2023-08-31T04:51:58;13.05;;;11.13;;
50739;SDS011;36704;52.524;17.580;2023-08-31T04:54:44;11.90;;;10.70;;
50739;SDS011;36704;52.524;17.580;2023-08-31T04:57:30;13.35;;;11.55;;
50739;SDS011;36704;52.524;17.580;2023-08-31T05:00:16;14.20;;;11.95;;
50739;SDS011;36704;52.524;17.580;2023-08-31T05:03:03;13.07;;;11.40;;
50739;SDS011;36704;52.524;17.580;2023-08-31T05:05:49;12.73;;;11.43;;
50739;SDS011;36704;52.524;17.580;2023-08-31T05:08:35;14.38;;;12.88;;
50739;SDS011;36704;52.524;17.580;2023-08-31T05:11:21;16.33;;;14.63;;
50739;SDS011;36704;52.524;17.580;2023-08-31T05:14:07;17.67;;;15.05;;
50739;SDS011;36704;52.524;17.580;2023-08-31T05:16:53;15.65;;;14.05;;
50739;SDS011;36704;52.524;17.580;2023-08-31T05:19:40;14.32;;;12.60;;
50739;SDS011;36704;52.524;17.580;2023-08-31T05:22:25;14.23;;;12.82;;
50739;SDS011;36704;52.524;17.580;2023-08-31T05:25:12;16.05;;;12.70;;
50739;SDS011;36704;52.524;17.580;2023-08-31T05:27:57;14.45;;;12.32;;
50739;SDS011;36704;52.524;17.580;2023-08-31T05:31:00;13.65;;;11.85;;
50739;SDS011;36704;52.524;17.580;2023-08-31T05:33:46;13.93;;;12.45;;
50739;SDS011;36704;52.524;17.580;2023-08-31T05:36:44;14.55;;;11.75;;
50739;SDS011;36704;52.524;17.580;2023-08-31T05:39:32;14.23;;;12.25;;
50739;SDS011;36704;52.524;17.580;2023-08-31T05:42:22;14.48;;;12.68;;
50739;SDS011;36704;52.524;17.580;2023-08-31T05:45:09;11.82;;;9.15;;
50739;SDS011;36704;52.524;17.580;2023-08-31T05:47:55;14.68;;;12.25;;
50739;SDS011;36704;52.524;17.580;2023-08-31T05:50:44;12.82;;;10.90;;
50739;SDS011;36704;52.524;17.580;2023-08-31T05:53:31;12.45;;;10.00;;
50739;SDS011;36704;52.524;17.580;2023-08-31T05:56:18;12.07;;;10.40;;
50739;SDS011;36704;52.524;17.580;2023-08-31T05:59:05;11.13;;;9.90;;
50739;SDS011;36704;52.524;17.580;2023-08-31T06:01:51;14.90;;;11.93;;
50739;SDS011;36704;52.524;17.580;2023-08-31T06:04:40;13.32;;;9.98;;
50739;SDS011;36704;52.524;17.580;2023-08-31T06:07:26;13.20;;;11.45;;
50739;SDS011;36704;52.524;17.580;2023-08-31T06:10:12;11.13;;;9.63;;
50739;SDS011;36704;52.524;17.580;2023-08-31T06:12:59;12.35;;;10.38;;
50739;SDS011;36704;52.524;17.580;2023-08-31T06:15:45;13.75;;;12.35;;
50739;SDS011;36704;52.524;17.580;2023-08-31T06:18:31;9.38;;;8.27;;
50739;SDS011;36704;52.524;17.580;2023-08-31T06:21:17;12.10;;;10.50;;
50739;SDS011;36704;52.524;17.580;2023-08-31T06:24:03;10.00;;;8.93;;
50739;SDS011;36704;52.524;17.580;2023-08-31T06:26:50;11.85;;;9.43;;
50739;SDS011;36704;52.524;17.580;2023-08-31T06:29:37;8.90;;;7.55;;
50739;SDS011;36704;52.524;17.580;2023-08-31T06:32:23;9.05;;;7.85;;
50739;SDS011;36704;52.524;17.580;2023-08-31T06:35:10;11.48;;;9.70;;
50739;SDS011;36704;52.524;17.580;2023-08-31T06:38:01;10.35;;;8.27;;
50739;SDS011;36704;52.524;17.580;2023-08-31T06:40:47;9.63;;;8.13;;
50739;SDS011;36704;52.524;17.580;2023-08-31T06:43:33;11.80;;;8.57;;
50739;SDS011;36704;52.524;17.580;2023-08-31T06:46:20;11.43;;;8.13;;
50739;SDS011;36704;52.524;17.580;2023-08-31T06:49:10;11.93;;;9.57;;
50739;SDS011;36704;52.524;17.580;2023-08-31T06:51:56;10.88;;;8.27;;
50739;SDS011;36704;52.524;17.580;2023-08-31T06:54:42;11.43;;;8.07;;
50739;SDS011;36704;52.524;17.580;2023-08-31T06:57:28;10.77;;;7.72;;
50739;SDS011;36704;52.524;17.580;2023-08-31T07:00:15;9.68;;;8.52;;
50739;SDS011;36704;52.524;17.580;2023-08-31T07:03:01;10.52;;;8.55;;
50739;SDS011;36704;52.524;17.580;2023-08-31T07:05:50;7.80;;;6.85;;
50739;SDS011;36704;52.524;17.580;2023-08-31T07:08:36;9.23;;;8.20;;
50739;SDS011;36704;52.524;17.580;2023-08-31T07:11:23;9.35;;;7.10;;
50739;SDS011;36704;52.524;17.580;2023-08-31T07:14:08;9.18;;;7.88;;
50739;SDS011;36704;52.524;17.580;2023-08-31T07:16:54;9.02;;;7.80;;
50739;SDS011;36704;52.524;17.580;2023-08-31T07:19:40;7.60;;;6.55;;
50739;SDS011;36704;52.524;17.580;2023-08-31T07:22:26;10.43;;;6.82;;
50739;SDS011;36704;52.524;17.580;2023-08-31T07:25:13;9.32;;;6.22;;
50739;SDS011;36704;52.524;17.580;2023-08-31T07:28:00;8.45;;;6.97;;
50739;SDS011;36704;52.524;17.580;2023-08-31T07:30:46;6.50;;;5.80;;
50739;SDS011;36704;52.524;17.580;2023-08-31T07:33:32;9.32;;;7.15;;
50739;SDS011;36704;52.524;17.580;2023-08-31T07:36:20;8.13;;;6.55;;
50739;SDS011;36704;52.524;17.580;2023-08-31T07:39:06;6.78;;;6.05;;
50739;SDS011;36704;52.524;17.580;2023-08-31T07:41:53;9.63;;;7.07;;
50739;SDS011;36704;52.524;17.580;2023-08-31T07:44:40;10.07;;;7.65;;
50739;SDS011;36704;52.524;17.580;2023-08-31T07:47:27;6.90;;;6.20;;
50739;SDS011;36704;52.524;17.580;2023-08-31T07:50:14;12.23;;;7.78;;
50739;SDS011;36704;52.524;17.580;2023-08-31T07:53:00;11.50;;;7.90;;
50739;SDS011;36704;52.524;17.580;2023-08-31T07:55:52;10.52;;;8.32;;
50739;SDS011;36704;52.524;17.580;2023-08-31T07:58:42;9.30;;;7.75;;
50739;SDS011;36704;52.524;17.580;2023-08-31T08:01:28;8.63;;;7.72;;
50739;SDS011;36704;52.524;17.580;2023-08-31T08:04:14;9.48;;;8.50;;
50739;SDS011;36704;52.524;17.580;2023-08-31T08:07:00;11.77;;;8.77;;
50739;SDS011;36704;52.524;17.580;2023-08-31T08:09:46;10.43;;;8.70;;
50739;SDS011;36704;52.524;17.580;2023-08-31T08:12:41;10.68;;;8.93;;
50739;SDS011;36704;52.524;17.580;2023-08-31T08:15:31;10.30;;;9.30;;
50739;SDS011;36704;52.524;17.580;2023-08-31T08:18:18;10.75;;;8.75;;
50739;SDS011;36704;52.524;17.580;2023-08-31T08:21:05;12.63;;;10.80;;
50739;SDS011;36704;52.524;17.580;2023-08-31T08:23:51;12.07;;;10.70;;
50739;SDS011;36704;52.524;17.580;2023-08-31T08:26:37;11.02;;;9.02;;
50739;SDS011;36704;52.524;17.580;2023-08-31T08:29:23;9.73;;;8.82;;
50739;SDS011;36704;52.524;17.580;2023-08-31T08:32:09;12.38;;;10.10;;
50739;SDS011;36704;52.524;17.580;2023-08-31T08:34:55;9.68;;;8.68;;
50739;SDS011;36704;52.524;17.580;2023-08-31T08:37:43;10.40;;;9.20;;
50739;SDS011;36704;52.524;17.580;2023-08-31T08:40:30;10.13;;;7.75;;
50739;SDS011;36704;52.524;17.580;2023-08-31T08:43:20;9.65;;;8.65;;
50739;SDS011;36704;52.524;17.580;2023-08-31T08:46:12;8.38;;;7.57;;
50739;SDS011;36704;52.524;17.580;2023-08-31T08:48:59;8.88;;;7.90;;
50739;SDS011;36704;52.524;17.580;2023-08-31T08:51:49;9.48;;;8.50;;
50739;SDS011;36704;52.524;17.580;2023-08-31T08:54:37;10.77;;;8.23;;
50739;SDS011;36704;52.524;17.580;2023-08-31T08:57:25;10.68;;;8.52;;
50739;SDS011;36704;52.524;17.580;2023-08-31T09:00:11;8.95;;;8.05;;
50739;SDS011;36704;52.524;17.580;2023-08-31T09:02:58;8.15;;;7.35;;
50739;SDS011;36704;52.524;17.580;2023-08-31T09:05:45;10.38;;;7.15;;
50739;SDS011;36704;52.524;17.580;2023-08-31T09:08:31;8.70;;;7.50;;
50739;SDS011;36704;52.524;17.580;2023-08-31T09:11:20;9.32;;;7.72;;
50739;SDS011;36704;52.524;17.580;2023-08-31T09:14:13;9.10;;;8.20;;
50739;SDS011;36704;52.524;17.580;2023-08-31T09:17:00;9.02;;;8.10;;
50739;SDS011;36704;52.524;17.580;2023-08-31T09:19:47;10.23;;;8.77;;
50739;SDS011;36704;52.524;17.580;2023-08-31T09:22:45;9.65;;;7.18;;
50739;SDS011;36704;52.524;17.580;2023-08-31T09:25:31;9.50;;;7.80;;
50739;SDS011;36704;52.524;17.580;2023-08-31T09:28:21;10.98;;;7.38;;
50739;SDS011;36704;52.524;17.580;2023-08-31T09:33:54;9.43;;;8.02;;
50739;SDS011;36704;52.524;17.580;2023-08-31T09:36:40;9.63;;;7.55;;
50739;SDS011;36704;52.524;17.580;2023-08-31T09:39:27;9.93;;;7.07;;
50739;SDS011;36704;52.524;17.580;2023-08-31T09:42:35;7.55;;;6.82;;
50739;SDS011;36704;52.524;17.580;2023-08-31T09:45:32;8.40;;;7.55;;
50739;SDS011;36704;52.524;17.580;2023-08-31T09:48:22;7.97;;;7.18;;
50739;SDS011;36704;52.524;17.580;2023-08-31T09:51:09;8.45;;;7.65;;
50739;SDS011;36704;52.524;17.580;2023-08-31T09:53:56;7.00;;;6.30;;
50739;SDS011;36704;52.524;17.580;2023-08-31T09:56:43;8.30;;;5.93;;
50739;SDS011;36704;52.524;17.580;2023-08-31T09:59:30;8.00;;;6.10;;
50739;SDS011;36704;52.524;17.580;2023-08-31T10:02:17;6.28;;;5.68;;
50739;SDS011;36704;52.524;17.580;2023-08-31T10:05:03;6.00;;;5.50;;
50739;SDS011;36704;52.524;17.580;2023-08-31T10:07:50;8.43;;;5.35;;
50739;SDS011;36704;52.524;17.580;2023-08-31T10:10:36;6.30;;;5.70;;
50739;SDS011;36704;52.524;17.580;2023-08-31T10:13:23;6.20;;;5.60;;
50739;SDS011;36704;52.524;17.580;2023-08-31T10:16:11;6.05;;;4.70;;
50739;SDS011;36704;52.524;17.580;2023-08-31T10:18:58;4.40;;;4.00;;
50739;SDS011;36704;52.524;17.580;2023-08-31T10:21:44;4.55;;;4.15;;
50739;SDS011;36704;52.524;17.580;2023-08-31T10:27:44;5.13;;;3.65;;
50739;SDS011;36704;52.524;17.580;2023-08-31T10:30:35;4.18;;;3.72;;
50739;SDS011;36704;52.524;17.580;2023-08-31T10:33:22;4.22;;;3.67;;
50739;SDS011;36704;52.524;17.580;2023-08-31T10:36:13;4.78;;;3.60;;
50739;SDS011;36704;52.524;17.580;2023-08-31T10:39:00;4.68;;;3.83;;
50739;SDS011;36704;52.524;17.580;2023-08-31T10:41:54;4.35;;;3.95;;
50739;SDS011;36704;52.524;17.580;2023-08-31T10:47:40;4.05;;;3.45;;
50739;SDS011;36704;52.524;17.580;2023-08-31T10:50:33;4.50;;;3.67;;
50739;SDS011;36704;52.524;17.580;2023-08-31T10:53:30;4.32;;;3.90;;
50739;SDS011;36704;52.524;17.580;2023-08-31T10:56:19;3.45;;;3.00;;
50739;SDS011;36704;52.524;17.580;2023-08-31T10:59:05;5.28;;;3.63;;
50739;SDS011;36704;52.524;17.580;2023-08-31T11:04:57;4.30;;;3.60;;
50739;SDS011;36704;52.524;17.580;2023-08-31T11:07:47;4.05;;;3.65;;
50739;SDS011;36704;52.524;17.580;2023-08-31T11:10:33;6.45;;;4.15;;
50739;SDS011;36704;52.524;17.580;2023-08-31T11:13:20;4.18;;;3.78;;
50739;SDS011;36704;52.524;17.580;2023-08-31T11:16:06;5.45;;;3.95;;
50739;SDS011;36704;52.524;17.580;2023-08-31T11:18:53;4.82;;;4.20;;
50739;SDS011;36704;52.524;17.580;2023-08-31T11:21:39;7.13;;;4.63;;
50739;SDS011;36704;52.524;17.580;2023-08-31T11:24:26;7.50;;;4.80;;
50739;SDS011;36704;52.524;17.580;2023-08-31T11:27:12;5.05;;;4.60;;
50739;SDS011;36704;52.524;17.580;2023-08-31T11:29:59;5.03;;;4.05;;
50739;SDS011;36704;52.524;17.580;2023-08-31T11:32:50;4.95;;;4.32;;
50739;SDS011;36704;52.524;17.580;2023-08-31T11:35:38;4.97;;;3.92;;
50739;SDS011;36704;52.524;17.580;2023-08-31T11:38:28;6.28;;;3.53;;
50739;SDS011;36704;52.524;17.580;2023-08-31T11:41:14;5.30;;;3.97;;
50739;SDS011;36704;52.524;17.580;2023-08-31T11:44:00;4.35;;;3.95;;
50739;SDS011;36704;52.524;17.580;2023-08-31T11:46:46;5.25;;;3.90;;
50739;SDS011;36704;52.524;17.580;2023-08-31T11:49:36;4.45;;;4.05;;
50739;SDS011;36704;52.524;17.580;2023-08-31T11:52:23;4.95;;;3.88;;
50739;SDS011;36704;52.524;17.580;2023-08-31T11:55:12;4.63;;;4.18;;
50739;SDS011;36704;52.524;17.580;2023-08-31T11:58:00;6.07;;;4.20;;
50739;SDS011;36704;52.524;17.580;2023-08-31T12:00:57;4.40;;;4.00;;
50739;SDS011;36704;52.524;17.580;2023-08-31T12:03:43;5.28;;;4.70;;
50739;SDS011;36704;52.524;17.580;2023-08-31T12:06:35;6.72;;;4.55;;
50739;SDS011;36704;52.524;17.580;2023-08-31T12:09:21;8.27;;;4.72;;
50739;SDS011;36704;52.524;17.580;2023-08-31T12:12:07;10.30;;;4.65;;
50739;SDS011;36704;52.524;17.580;2023-08-31T12:14:54;7.97;;;4.63;;
50739;SDS011;36704;52.524;17.580;2023-08-31T12:17:39;8.73;;;4.20;;
50739;SDS011;36704;52.524;17.580;2023-08-31T12:20:26;6.65;;;4.05;;
50739;SDS011;36704;52.524;17.580;2023-08-31T12:23:13;5.05;;;4.03;;
50739;SDS011;36704;52.524;17.580;2023-08-31T12:26:01;5.80;;;3.97;;
50739;SDS011;36704;52.524;17.580;2023-08-31T12:28:48;5.15;;;3.90;;
50739;SDS011;36704;52.524;17.580;2023-08-31T12:31:34;4.72;;;3.33;;
50739;SDS011;36704;52.524;17.580;2023-08-31T12:34:21;7.10;;;3.50;;
50739;SDS011;36704;52.524;17.580;2023-08-31T12:37:07;4.40;;;3.10;;
50739;SDS011;36704;52.524;17.580;2023-08-31T12:39:53;4.43;;;3.10;;
50739;SDS011;36704;52.524;17.580;2023-08-31T12:42:39;3.78;;;3.38;;
50739;SDS011;36704;52.524;17.580;2023-08-31T12:45:25;3.65;;;2.58;;
50739;SDS011;36704;52.524;17.580;2023-08-31T12:48:11;4.07;;;2.80;;
50739;SDS011;36704;52.524;17.580;2023-08-31T12:50:57;2.90;;;2.53;;
50739;SDS011;36704;52.524;17.580;2023-08-31T12:53:44;4.15;;;2.55;;
50739;SDS011;36704;52.524;17.580;2023-08-31T12:56:31;5.35;;;2.90;;
50739;SDS011;36704;52.524;17.580;2023-08-31T12:59:17;3.00;;;2.50;;
50739;SDS011;36704;52.524;17.580;2023-08-31T13:02:02;3.50;;;2.20;;
50739;SDS011;36704;52.524;17.580;2023-08-31T13:04:53;3.47;;;2.63;;
50739;SDS011;36704;52.524;17.580;2023-08-31T13:07:38;4.65;;;2.75;;
50739;SDS011;36704;52.524;17.580;2023-08-31T13:10:26;3.05;;;2.30;;
50739;SDS011;36704;52.524;17.580;2023-08-31T13:13:16;4.32;;;2.72;;
50739;SDS011;36704;52.524;17.580;2023-08-31T13:16:17;6.13;;;2.50;;
50739;SDS011;36704;52.524;17.580;2023-08-31T13:19:05;3.97;;;3.00;;
50739;SDS011;36704;52.524;17.580;2023-08-31T13:21:52;3.78;;;2.55;;
50739;SDS011;36704;52.524;17.580;2023-08-31T13:24:39;3.63;;;2.90;;
50739;SDS011;36704;52.524;17.580;2023-08-31T13:27:25;4.22;;;2.65;;
50739;SDS011;36704;52.524;17.580;2023-08-31T13:30:11;3.70;;;2.40;;
50739;SDS011;36704;52.524;17.580;2023-08-31T13:32:58;3.53;;;2.20;;
50739;SDS011;36704;52.524;17.580;2023-08-31T13:35:45;3.67;;;2.10;;
50739;SDS011;36704;52.524;17.580;2023-08-31T13:38:31;2.20;;;2.00;;
50739;SDS011;36704;52.524;17.580;2023-08-31T13:41:17;2.95;;;1.85;;
50739;SDS011;36704;52.524;17.580;2023-08-31T13:44:06;2.67;;;2.03;;
50739;SDS011;36704;52.524;17.580;2023-08-31T13:46:52;2.20;;;1.90;;
50739;SDS011;36704;52.524;17.580;2023-08-31T13:49:39;2.40;;;2.20;;
50739;SDS011;36704;52.524;17.580;2023-08-31T13:52:24;2.25;;;2.05;;
50739;SDS011;36704;52.524;17.580;2023-08-31T13:55:10;3.30;;;2.30;;
50739;SDS011;36704;52.524;17.580;2023-08-31T13:57:57;2.28;;;1.80;;
50739;SDS011;36704;52.524;17.580;2023-08-31T14:00:43;2.80;;;1.80;;
50739;SDS011;36704;52.524;17.580;2023-08-31T14:03:29;3.33;;;2.08;;
50739;SDS011;36704;52.524;17.580;2023-08-31T14:06:15;5.30;;;2.70;;
50739;SDS011;36704;52.524;17.580;2023-08-31T14:09:01;8.07;;;2.42;;
50739;SDS011;36704;52.524;17.580;2023-08-31T14:11:48;6.35;;;2.33;;
50739;SDS011;36704;52.524;17.580;2023-08-31T14:14:34;4.22;;;2.20;;
50739;SDS011;36704;52.524;17.580;2023-08-31T14:17:20;4.28;;;2.70;;
50739;SDS011;36704;52.524;17.580;2023-08-31T14:20:05;2.40;;;2.20;;
50739;SDS011;36704;52.524;17.580;2023-08-31T14:22:55;3.40;;;2.28;;
50739;SDS011;36704;52.524;17.580;2023-08-31T14:25:41;4.93;;;2.47;;
50739;SDS011;36704;52.524;17.580;2023-08-31T14:28:27;4.38;;;2.65;;
50739;SDS011;36704;52.524;17.580;2023-08-31T14:31:14;5.32;;;2.92;;
50739;SDS011;36704;52.524;17.580;2023-08-31T14:34:01;3.20;;;2.75;;
50739;SDS011;36704;52.524;17.580;2023-08-31T14:36:47;4.93;;;3.25;;
50739;SDS011;36704;52.524;17.580;2023-08-31T14:39:34;3.88;;;3.20;;
50739;SDS011;36704;52.524;17.580;2023-08-31T14:42:20;5.32;;;2.92;;
50739;SDS011;36704;52.524;17.580;2023-08-31T14:45:06;4.57;;;2.72;;
50739;SDS011;36704;52.524;17.580;2023-08-31T14:47:52;3.20;;;2.70;;
50739;SDS011;36704;52.524;17.580;2023-08-31T14:50:42;3.60;;;3.20;;
50739;SDS011;36704;52.524;17.580;2023-08-31T14:53:29;4.32;;;3.20;;
50739;SDS011;36704;52.524;17.580;2023-08-31T14:56:15;4.60;;;3.47;;
50739;SDS011;36704;52.524;17.580;2023-08-31T14:59:01;5.72;;;3.15;;
50739;SDS011;36704;52.524;17.580;2023-08-31T15:01:47;7.10;;;3.88;;
50739;SDS011;36704;52.524;17.580;2023-08-31T15:04:33;6.72;;;4.03;;
50739;SDS011;36704;52.524;17.580;2023-08-31T15:07:19;4.60;;;3.10;;
50739;SDS011;36704;52.524;17.580;2023-08-31T15:10:06;5.55;;;3.53;;
50739;SDS011;36704;52.524;17.580;2023-08-31T15:12:52;8.85;;;3.95;;
50739;SDS011;36704;52.524;17.580;2023-08-31T15:15:44;8.93;;;4.68;;
50739;SDS011;36704;52.524;17.580;2023-08-31T15:18:35;12.13;;;5.57;;
50739;SDS011;36704;52.524;17.580;2023-08-31T15:21:20;11.43;;;4.95;;
50739;SDS011;36704;52.524;17.580;2023-08-31T15:24:06;10.82;;;4.45;;
50739;SDS011;36704;52.524;17.580;2023-08-31T15:26:52;10.93;;;4.82;;
50739;SDS011;36704;52.524;17.580;2023-08-31T15:29:38;12.88;;;4.43;;
50739;SDS011;36704;52.524;17.580;2023-08-31T15:32:24;6.35;;;3.20;;
50739;SDS011;36704;52.524;17.580;2023-08-31T15:35:10;6.68;;;4.18;;
50739;SDS011;36704;52.524;17.580;2023-08-31T15:37:55;7.85;;;4.03;;
50739;SDS011;36704;52.524;17.580;2023-08-31T15:40:50;8.68;;;2.97;;
50739;SDS011;36704;52.524;17.580;2023-08-31T15:43:36;5.93;;;3.15;;
50739;SDS011;36704;52.524;17.580;2023-08-31T15:46:25;4.82;;;2.90;;
50739;SDS011;36704;52.524;17.580;2023-08-31T15:49:12;5.68;;;2.85;;
50739;SDS011;36704;52.524;17.580;2023-08-31T15:52:00;7.57;;;3.20;;
50739;SDS011;36704;52.524;17.580;2023-08-31T15:54:49;6.50;;;3.20;;
50739;SDS011;36704;52.524;17.580;2023-08-31T15:57:36;4.43;;;2.70;;
50739;SDS011;36704;52.524;17.580;2023-08-31T16:00:25;5.72;;;3.47;;
50739;SDS011;36704;52.524;17.580;2023-08-31T16:03:12;10.27;;;5.60;;
50739;SDS011;36704;52.524;17.580;2023-08-31T16:05:58;8.63;;;5.45;;
50739;SDS011;36704;52.524;17.580;2023-08-31T16:08:45;6.32;;;4.68;;
50739;SDS011;36704;52.524;17.580;2023-08-31T16:11:31;18.17;;;15.30;;
50739;SDS011;36704;52.524;17.580;2023-08-31T16:14:17;11.80;;;8.30;;
50739;SDS011;36704;52.524;17.580;2023-08-31T16:17:03;7.50;;;3.80;;
50739;SDS011;36704;52.524;17.580;2023-08-31T16:19:49;5.38;;;3.20;;
50739;SDS011;36704;52.524;17.580;2023-08-31T16:22:35;5.30;;;3.15;;
50739;SDS011;36704;52.524;17.580;2023-08-31T16:25:21;4.25;;;2.85;;
50739;SDS011;36704;52.524;17.580;2023-08-31T16:28:07;5.75;;;3.30;;
50739;SDS011;36704;52.524;17.580;2023-08-31T16:30:55;6.65;;;3.95;;
50739;SDS011;36704;52.524;17.580;2023-08-31T16:33:42;4.63;;;3.92;;
50739;SDS011;36704;52.524;17.580;2023-08-31T16:36:28;6.07;;;4.70;;
50739;SDS011;36704;52.524;17.580;2023-08-31T16:39:15;11.60;;;5.90;;
50739;SDS011;36704;52.524;17.580;2023-08-31T16:42:01;12.85;;;7.80;;
50739;SDS011;36704;52.524;17.580;2023-08-31T16:44:49;12.55;;;7.88;;